Time;durP1;ratioP1;P1;durP2;ratioP2;P2;SDS_P1;SDS_P2;PMS_P1;PMS_P2;Temp;Humidity;BMP_temperature;BMP_pressure;BME280_temperature;BME280_humidity;BME280_pressure;Samples;Min_cycle;Max_cycle;Signal;HPM_P1;HPM_P2
2022/01/15 00:00:27;;;;;;;18.77;4.50;;;0.50;1.00;;;;;;5072802;28;20241;-85
2022/01/15 00:02:54;;;;;;;23.07;4.13;;;0.50;1.00;;;;;;5072781;28;20274;-85
2022/01/15 00:05:22;;;;;;;23.90;4.70;;;0.50;1.00;;;;;;5072688;28;20248;-87
2022/01/15 00:07:50;;;;;;;21.57;3.67;;;0.50;1.00;;;;;;5073144;28;20195;-86
2022/01/15 00:10:20;;;;;;;27.30;4.87;;;0.50;1.00;;;;;;5073065;28;20253;-85
2022/01/15 00:12:47;;;;;;;22.60;4.10;;;0.50;1.00;;;;;;5072568;28;20192;-86
2022/01/15 00:15:20;;;;;;;22.63;4.40;;;0.50;1.00;;;;;;5072747;28;20195;-86
2022/01/15 00:17:55;;;;;;;26.73;4.67;;;0.50;1.00;;;;;;5073009;28;20186;-85
2022/01/15 00:20:23;;;;;;;27.60;4.70;;;0.50;1.00;;;;;;5073348;28;20194;-85
2022/01/15 00:22:53;;;;;;;20.40;4.40;;;0.50;1.00;;;;;;5072797;28;20604;-86
2022/01/15 00:25:22;;;;;;;17.90;4.00;;;0.40;1.00;;;;;;5072657;28;20180;-88
2022/01/15 00:27:49;;;;;;;29.63;5.43;;;0.40;1.00;;;;;;5072672;28;20224;-86
2022/01/15 00:30:17;;;;;;;23.23;4.90;;;0.40;1.00;;;;;;5072678;28;20192;-87
2022/01/15 00:32:45;;;;;;;26.63;5.03;;;0.40;1.00;;;;;;5072511;28;20713;-87
2022/01/15 00:35:14;;;;;;;27.77;5.00;;;0.40;1.00;;;;;;5072836;28;20261;-86
2022/01/15 00:37:41;;;;;;;20.13;5.43;;;0.40;1.00;;;;;;5072805;28;20730;-87
2022/01/15 00:40:13;;;;;;;26.77;5.07;;;0.30;1.00;;;;;;5072350;28;20191;-85
2022/01/15 00:42:41;;;;;;;23.53;4.33;;;0.40;1.00;;;;;;5072732;28;20188;-87
2022/01/15 00:45:14;;;;;;;25.60;4.77;;;0.30;1.00;;;;;;5072550;28;20192;-88
2022/01/15 00:47:41;;;;;;;33.90;4.90;;;0.30;1.00;;;;;;5072876;28;20212;-87
2022/01/15 00:50:09;;;;;;;28.80;4.83;;;0.30;1.00;;;;;;5072317;28;20253;-86
2022/01/15 00:52:37;;;;;;;29.07;5.90;;;0.30;1.00;;;;;;5072189;28;20196;-87
2022/01/15 00:55:06;;;;;;;25.53;5.93;;;0.20;1.00;;;;;;5072236;28;20219;-87
2022/01/15 00:57:34;;;;;;;26.70;4.77;;;0.20;1.00;;;;;;5072261;28;20245;-86
2022/01/15 01:00:01;;;;;;;23.97;5.33;;;0.20;1.00;;;;;;5072471;28;20242;-87
2022/01/15 01:02:28;;;;;;;24.90;5.80;;;0.20;1.00;;;;;;5072464;28;20241;-87
2022/01/15 01:04:55;;;;;;;22.50;4.80;;;0.20;1.00;;;;;;5072371;28;20271;-86
2022/01/15 01:07:22;;;;;;;23.13;4.73;;;0.20;1.00;;;;;;5075943;28;20215;-86
2022/01/15 01:10:04;;;;;;;28.53;5.47;;;0.30;1.00;;;;;;5076016;28;20196;-87
2022/01/15 01:12:55;;;;;;;20.37;4.43;;;0.20;1.00;;;;;;5076444;28;20241;-86
2022/01/15 01:21:02;;;;;;;28.27;5.30;;;0.20;1.00;;;;;;5076043;28;20648;-86
2022/01/15 01:23:28;;;;;;;31.27;4.90;;;0.20;1.00;;;;;;5076147;28;20187;-86
2022/01/15 01:26:00;;;;;;;15.23;4.50;;;0.20;1.00;;;;;;5076017;28;20382;-86
2022/01/15 01:28:32;;;;;;;30.50;4.50;;;0.20;1.00;;;;;;5075856;28;20180;-85
2022/01/15 01:31:06;;;;;;;32.80;5.97;;;0.20;1.00;;;;;;5075255;28;20633;-85
2022/01/15 01:33:37;;;;;;;27.43;5.30;;;0.20;1.00;;;;;;5075612;28;20222;-86
2022/01/15 01:36:15;;;;;;;28.37;5.40;;;0.10;1.00;;;;;;5075968;28;20639;-87
2022/01/15 01:38:50;;;;;;;34.90;4.60;;;0.20;1.00;;;;;;5075837;28;20219;-87
2022/01/15 01:41:19;;;;;;;28.87;4.83;;;0.10;1.00;;;;;;5075622;28;20184;-86
2022/01/15 01:43:51;;;;;;;32.43;4.73;;;0.10;1.00;;;;;;5075737;28;20561;-86
2022/01/15 01:46:33;;;;;;;28.67;5.87;;;0.10;1.00;;;;;;5075803;28;20307;-87
2022/01/15 01:49:02;;;;;;;24.83;4.27;;;0.10;1.00;;;;;;5075340;28;20536;-86
2022/01/15 01:51:33;;;;;;;25.47;4.43;;;0.00;1.00;;;;;;5075661;28;20196;-86
2022/01/15 01:54:02;;;;;;;31.20;5.33;;;0.00;1.00;;;;;;5075351;28;20241;-86
2022/01/15 01:56:29;;;;;;;28.73;4.80;;;0.00;1.00;;;;;;5075626;28;20623;-87
2022/01/15 01:58:56;;;;;;;23.73;4.77;;;0.00;1.00;;;;;;5075056;28;20570;-87
2022/01/15 02:01:26;;;;;;;27.77;4.60;;;-0.10;1.00;;;;;;5075511;28;20196;-87
2022/01/15 02:03:53;;;;;;;32.43;4.70;;;-0.10;1.00;;;;;;5075393;28;20203;-86
2022/01/15 02:06:21;;;;;;;25.30;4.33;;;-0.10;1.00;;;;;;5075075;28;20266;-87
2022/01/15 02:08:49;;;;;;;29.87;5.40;;;-0.10;1.00;;;;;;5075606;28;20191;-86
2022/01/15 02:11:17;;;;;;;28.80;4.00;;;-0.10;1.00;;;;;;5075450;28;20196;-88
2022/01/15 02:13:46;;;;;;;27.97;4.97;;;-0.20;1.00;;;;;;5075240;28;20195;-87
2022/01/15 02:16:14;;;;;;;31.63;5.13;;;-0.20;1.00;;;;;;5074611;28;20242;-87
2022/01/15 02:18:43;;;;;;;27.87;5.30;;;-0.20;1.00;;;;;;5074868;28;20703;-86
2022/01/15 02:23:57;;;;;;;25.13;4.50;;;-0.20;1.00;;;;;;5074980;28;20194;-87
2022/01/15 02:26:25;;;;;;;29.07;4.80;;;-0.20;1.00;;;;;;5074602;28;20211;-86
2022/01/15 02:28:55;;;;;;;28.03;6.30;;;-0.20;1.00;;;;;;5074753;28;20242;-87
2022/01/15 02:31:23;;;;;;;38.00;5.43;;;-0.20;1.00;;;;;;5074804;28;20218;-87
2022/01/15 02:33:53;;;;;;;21.30;4.37;;;-0.20;1.00;;;;;;5075043;28;20251;-86
2022/01/15 02:36:23;;;;;;;26.00;4.87;;;-0.20;1.00;;;;;;5074661;28;20710;-86
2022/01/15 02:38:51;;;;;;;25.50;4.23;;;-0.20;1.00;;;;;;5074409;28;20192;-87
2022/01/15 02:41:26;;;;;;;26.57;4.83;;;-0.20;1.00;;;;;;5074519;28;20717;-87
2022/01/15 02:43:54;;;;;;;22.60;5.37;;;-0.30;1.00;;;;;;5074885;28;20231;-87
2022/01/15 02:46:24;;;;;;;30.80;4.97;;;-0.30;1.00;;;;;;5074677;28;20227;-88
2022/01/15 02:48:52;;;;;;;29.30;5.50;;;-0.30;1.00;;;;;;5075218;28;20199;-86
2022/01/15 02:51:23;;;;;;;30.93;5.30;;;-0.20;1.00;;;;;;5074337;28;20648;-86
2022/01/15 02:53:54;;;;;;;40.73;5.50;;;-0.30;1.00;;;;;;5074352;28;20176;-87
2022/01/15 02:56:23;;;;;;;30.23;6.27;;;-0.20;1.00;;;;;;5074807;28;20220;-86
2022/01/15 02:58:50;;;;;;;27.60;5.37;;;-0.30;1.00;;;;;;5073666;28;20220;-89
2022/01/15 03:01:17;;;;;;;26.70;4.73;;;-0.30;1.00;;;;;;5073985;28;20573;-87
2022/01/15 03:03:45;;;;;;;26.17;5.73;;;-0.30;1.00;;;;;;5073947;28;20783;-86
2022/01/15 03:06:12;;;;;;;27.97;5.10;;;-0.30;1.00;;;;;;5073867;28;20587;-87
2022/01/15 03:08:41;;;;;;;27.07;4.77;;;-0.30;1.00;;;;;;5074107;28;20192;-87
2022/01/15 03:11:10;;;;;;;27.53;5.07;;;-0.30;1.00;;;;;;5074149;28;20196;-86
2022/01/15 03:13:38;;;;;;;30.53;4.60;;;-0.30;1.00;;;;;;5074130;28;20230;-88
2022/01/15 03:16:05;;;;;;;25.63;4.77;;;-0.30;1.00;;;;;;5074046;28;20188;-87
2022/01/15 03:18:32;;;;;;;36.80;5.30;;;-0.30;1.00;;;;;;5073413;28;20249;-87
2022/01/15 03:20:59;;;;;;;29.70;5.50;;;-0.30;1.00;;;;;;5073785;28;20261;-87
2022/01/15 03:23:26;;;;;;;30.27;5.47;;;-0.30;1.00;;;;;;5073615;28;20253;-86
2022/01/15 03:25:55;;;;;;;27.77;5.13;;;-0.30;1.00;;;;;;5074144;28;20192;-87
2022/01/15 03:28:22;;;;;;;26.83;5.17;;;-0.30;1.00;;;;;;5073197;28;20208;-86
2022/01/15 03:30:49;;;;;;;24.13;5.03;;;-0.30;1.00;;;;;;5073633;28;20187;-86
2022/01/15 03:33:16;;;;;;;24.57;4.67;;;-0.30;1.00;;;;;;5073842;28;20640;-86
2022/01/15 03:35:43;;;;;;;26.90;4.80;;;-0.30;1.00;;;;;;5073440;28;20192;-86
2022/01/15 03:38:10;;;;;;;25.97;5.47;;;-0.30;1.00;;;;;;5073257;28;20558;-87
2022/01/15 03:40:37;;;;;;;26.63;5.10;;;-0.30;1.00;;;;;;5073207;28;20204;-86
2022/01/15 03:43:06;;;;;;;39.30;5.03;;;-0.40;1.00;;;;;;5073506;28;20245;-86
2022/01/15 03:45:34;;;;;;;31.60;5.23;;;-0.40;1.00;;;;;;5073075;28;20249;-88
2022/01/15 03:48:01;;;;;;;25.80;5.43;;;-0.40;1.00;;;;;;5073191;28;20208;-87
2022/01/15 03:50:30;;;;;;;23.43;4.53;;;-0.40;1.00;;;;;;5073035;28;20656;-86
2022/01/15 03:52:57;;;;;;;35.93;4.80;;;-0.40;1.00;;;;;;5073524;28;20195;-87
2022/01/15 03:55:25;;;;;;;25.17;4.60;;;-0.40;1.00;;;;;;5073447;28;20345;-87
2022/01/15 03:57:52;;;;;;;22.27;4.53;;;-0.40;1.00;;;;;;5072979;28;20291;-88
2022/01/15 04:00:24;;;;;;;37.43;5.33;;;-0.50;1.00;;;;;;5073183;28;20191;-88
2022/01/15 04:02:52;;;;;;;26.40;4.87;;;-0.50;1.00;;;;;;5072810;28;20191;-88
2022/01/15 04:05:19;;;;;;;32.50;4.57;;;-0.50;1.00;;;;;;5072788;28;20196;-86
2022/01/15 04:07:46;;;;;;;29.93;4.47;;;-0.50;1.00;;;;;;5072921;28;20265;-87
2022/01/15 04:10:15;;;;;;;27.40;4.53;;;-0.50;1.00;;;;;;5072926;28;20248;-87
2022/01/15 04:12:42;;;;;;;28.60;4.87;;;-0.50;1.00;;;;;;5072713;28;20234;-87
2022/01/15 04:15:13;;;;;;;25.30;4.27;;;-0.50;1.00;;;;;;5072675;28;20233;-86
2022/01/15 04:17:42;;;;;;;27.10;4.73;;;-0.50;1.00;;;;;;5072759;28;20188;-87
2022/01/15 04:20:10;;;;;;;35.17;4.90;;;-0.50;1.00;;;;;;5072981;28;20703;-87
2022/01/15 04:22:37;;;;;;;27.67;4.77;;;-0.50;1.00;;;;;;5072840;28;20199;-87
2022/01/15 04:25:05;;;;;;;31.43;5.17;;;-0.50;1.00;;;;;;5072615;28;20721;-88
2022/01/15 04:27:33;;;;;;;22.27;4.43;;;-0.60;1.00;;;;;;5072773;28;20227;-88
2022/01/15 04:30:03;;;;;;;23.83;4.37;;;-0.60;1.00;;;;;;5072635;28;20196;-87
2022/01/15 04:32:31;;;;;;;28.73;4.30;;;-0.60;1.00;;;;;;5073196;28;20189;-86
2022/01/15 04:35:00;;;;;;;41.97;5.73;;;-0.60;1.00;;;;;;5073003;28;20222;-86
2022/01/15 04:37:35;;;;;;;30.00;5.13;;;-0.50;1.00;;;;;;5073204;28;20355;-87
2022/01/15 04:40:02;;;;;;;33.33;4.77;;;-0.50;1.00;;;;;;5072696;28;20223;-87
2022/01/15 04:42:30;;;;;;;25.90;4.53;;;-0.50;1.00;;;;;;5072538;28;20644;-87
2022/01/15 04:44:57;;;;;;;25.20;4.40;;;-0.50;1.00;;;;;;5072402;28;20215;-87
2022/01/15 04:47:24;;;;;;;25.43;5.63;;;-0.50;1.00;;;;;;5072278;28;20211;-85
2022/01/15 04:49:53;;;;;;;30.83;5.77;;;-0.50;1.00;;;;;;5072211;28;20195;-88
2022/01/15 04:52:22;;;;;;;29.20;4.80;;;-0.50;1.00;;;;;;5072402;28;20266;-88
2022/01/15 04:54:49;;;;;;;30.70;5.37;;;-0.50;1.00;;;;;;5072242;28;20228;-87
2022/01/15 04:57:16;;;;;;;26.80;5.13;;;-0.60;1.00;;;;;;5072197;28;20643;-86
2022/01/15 04:59:42;;;;;;;29.30;5.30;;;-0.60;1.00;;;;;;5072303;28;20195;-86
2022/01/15 05:02:09;;;;;;;35.90;6.27;;;-0.60;1.00;;;;;;5072506;28;20195;-86
2022/01/15 05:04:36;;;;;;;26.20;5.57;;;-0.60;1.00;;;;;;5072577;28;20196;-87
2022/01/15 05:07:04;;;;;;;33.33;6.97;;;-0.50;1.00;;;;;;5071898;28;20196;-88
2022/01/15 05:09:32;;;;;;;43.20;7.10;;;-0.50;1.00;;;;;;5072173;28;20645;-86
2022/01/15 05:12:03;;;;;;;32.27;5.70;;;-0.50;1.00;;;;;;5072562;28;20249;-87
2022/01/15 05:14:30;;;;;;;38.03;5.70;;;-0.60;1.00;;;;;;5072455;28;20249;-87
2022/01/15 05:16:57;;;;;;;27.10;5.07;;;-0.60;1.00;;;;;;5072257;28;20200;-88
2022/01/15 05:19:24;;;;;;;30.60;5.40;;;-0.60;1.00;;;;;;5072290;28;20203;-87
2022/01/15 05:21:54;;;;;;;23.20;5.13;;;-0.70;1.00;;;;;;5071990;28;20726;-88
2022/01/15 05:24:21;;;;;;;27.00;4.60;;;-0.80;1.00;;;;;;5072239;28;20249;-86
2022/01/15 05:26:50;;;;;;;32.90;5.70;;;-0.80;1.00;;;;;;5072305;28;20245;-88
2022/01/15 05:29:19;;;;;;;35.73;5.80;;;-0.90;1.00;;;;;;5071978;28;20632;-87
2022/01/15 05:31:46;;;;;;;26.10;6.47;;;-1.00;1.00;;;;;;5071830;28;20184;-87
2022/01/15 05:34:13;;;;;;;24.60;6.77;;;-1.10;1.00;;;;;;5071776;28;20249;-87
2022/01/15 05:36:40;;;;;;;26.03;7.00;;;-1.20;1.00;;;;;;5072163;28;20192;-87
2022/01/15 05:39:08;;;;;;;30.73;7.40;;;-1.20;1.00;;;;;;5071989;28;20188;-87
2022/01/15 05:41:35;;;;;;;31.93;6.77;;;-1.20;1.00;;;;;;5072394;28;20200;-87
2022/01/15 05:44:04;;;;;;;24.87;6.50;;;-1.30;1.00;;;;;;5072470;28;20188;-87
2022/01/15 05:46:33;;;;;;;31.37;8.07;;;-1.30;1.00;;;;;;5072415;28;20188;-86
2022/01/15 05:49:01;;;;;;;36.10;6.53;;;-1.30;1.00;;;;;;5071793;28;20212;-87
2022/01/15 05:51:30;;;;;;;35.73;8.27;;;-1.40;1.00;;;;;;5072437;28;20199;-87
2022/01/15 05:53:58;;;;;;;37.13;9.37;;;-1.40;1.00;;;;;;5075215;28;20192;-87
2022/01/15 05:56:25;;;;;;;30.53;7.30;;;-1.40;1.00;;;;;;5075552;28;20737;-87
2022/01/15 05:58:52;;;;;;;33.30;5.87;;;-1.40;1.00;;;;;;5075133;28;20200;-87
2022/01/15 06:01:20;;;;;;;28.37;5.60;;;-1.40;1.00;;;;;;5074913;28;20541;-87
2022/01/15 06:03:47;;;;;;;32.80;5.77;;;-1.50;1.00;;;;;;5075024;28;20192;-86
2022/01/15 06:06:14;;;;;;;23.80;6.33;;;-1.50;1.00;;;;;;5075353;28;20250;-87
2022/01/15 06:08:41;;;;;;;38.47;9.50;;;-1.50;1.00;;;;;;5075040;28;20207;-87
2022/01/15 06:11:10;;;;;;;35.67;11.67;;;-1.50;1.00;;;;;;5074696;28;20200;-87
2022/01/15 06:13:37;;;;;;;42.77;10.00;;;-1.60;1.00;;;;;;5075449;28;20548;-86
2022/01/15 06:16:04;;;;;;;31.67;9.70;;;-1.50;1.00;;;;;;5075595;28;20249;-88
2022/01/15 06:18:33;;;;;;;42.30;9.23;;;-1.50;1.00;;;;;;5074726;28;20706;-87
2022/01/15 06:21:00;;;;;;;35.77;10.70;;;-1.50;1.00;;;;;;5074985;28;20199;-87
2022/01/15 06:23:27;;;;;;;36.90;10.73;;;-1.60;1.00;;;;;;5074756;28;20192;-88
2022/01/15 06:25:54;;;;;;;32.70;9.93;;;-1.60;1.00;;;;;;5074660;28;20192;-87
2022/01/15 06:28:21;;;;;;;52.50;21.80;;;-1.60;1.00;;;;;;5074900;28;20277;-87
2022/01/15 06:30:49;;;;;;;39.87;17.27;;;-1.60;1.00;;;;;;5074773;28;20195;-87
2022/01/15 06:33:16;;;;;;;40.63;14.27;;;-1.70;1.00;;;;;;5074522;28;20191;-87
2022/01/15 06:35:44;;;;;;;43.60;16.27;;;-1.70;1.00;;;;;;5074493;28;20196;-87
2022/01/15 06:38:11;;;;;;;42.97;11.97;;;-1.70;1.00;;;;;;5074063;28;20250;-87
2022/01/15 06:40:38;;;;;;;48.20;10.53;;;-1.70;1.00;;;;;;5073860;28;20272;-87
2022/01/15 06:43:06;;;;;;;40.37;9.37;;;-1.60;1.00;;;;;;5073646;28;20221;-87
2022/01/15 06:45:35;;;;;;;42.60;11.17;;;-1.60;1.00;;;;;;5072777;28;20599;-88
2022/01/15 06:48:02;;;;;;;35.23;8.43;;;-1.50;1.00;;;;;;5073165;28;20285;-86
2022/01/15 06:50:30;;;;;;;53.87;14.03;;;-1.50;1.00;;;;;;5072640;28;20204;-86
2022/01/15 06:52:58;;;;;;;48.73;10.67;;;-1.40;1.00;;;;;;5072935;28;20261;-87
2022/01/15 06:55:25;;;;;;;50.57;10.77;;;-1.40;1.00;;;;;;5072580;28;20224;-88
2022/01/15 06:57:53;;;;;;;54.50;14.03;;;-1.30;1.00;;;;;;5073228;28;20196;-89
2022/01/15 07:00:20;;;;;;;67.30;21.03;;;-1.20;1.00;;;;;;5074148;28;20267;-87
2022/01/15 07:02:47;;;;;;;62.53;17.97;;;-1.20;1.00;;;;;;5074466;28;20253;-88
2022/01/15 07:05:14;;;;;;;46.20;13.17;;;-1.20;1.00;;;;;;5074111;28;20241;-88
2022/01/15 07:07:45;;;;;;;37.30;10.53;;;-1.10;1.00;;;;;;5073826;28;20196;-87
2022/01/15 07:10:14;;;;;;;53.53;12.80;;;-1.10;1.00;;;;;;5074305;28;20188;-87
2022/01/15 07:12:42;;;;;;;45.70;9.87;;;-1.00;1.00;;;;;;5074297;28;20192;-86
2022/01/15 07:15:11;;;;;;;33.83;9.27;;;-1.00;1.00;;;;;;5074101;28;20725;-86
2022/01/15 07:17:43;;;;;;;47.03;11.27;;;-0.90;1.00;;;;;;5074515;28;20532;-88
2022/01/15 07:20:11;;;;;;;32.07;12.20;;;-0.90;1.00;;;;;;5073997;28;20628;-87
2022/01/15 07:22:39;;;;;;;51.93;16.17;;;-0.80;1.00;;;;;;5073945;28;20601;-86
2022/01/15 07:25:08;;;;;;;41.50;12.10;;;-0.80;1.00;;;;;;5074044;28;20192;-86
2022/01/15 07:27:36;;;;;;;44.00;13.30;;;-0.80;1.00;;;;;;5073726;28;20188;-87
2022/01/15 07:30:05;;;;;;;50.43;17.10;;;-0.70;1.00;;;;;;5070918;28;20589;-88
2022/01/15 07:32:35;;;;;;;44.57;10.10;;;-0.60;1.00;;;;;;5074199;28;20551;-89
2022/01/15 07:35:02;;;;;;;51.03;12.00;;;-0.60;1.00;;;;;;5073470;28;20233;-86
2022/01/15 07:37:31;;;;;;;39.27;9.00;;;-0.60;1.00;;;;;;5074943;28;20196;-89
2022/01/15 07:39:59;;;;;;;45.27;7.60;;;-0.50;1.00;;;;;;5073569;28;20234;-88
2022/01/15 07:42:28;;;;;;;39.95;7.90;;;-0.50;1.00;;;;;;5075581;28;20188;-85
2022/01/15 07:44:56;;;;;;;34.47;7.77;;;-0.40;1.00;;;;;;5078627;28;20674;-87
2022/01/15 07:47:23;;;;;;;41.57;11.20;;;-0.40;1.00;;;;;;5079108;28;20275;-85
2022/01/15 07:49:50;;;;;;;43.83;8.70;;;-0.30;1.00;;;;;;5078891;28;20207;-86
2022/01/15 07:52:19;;;;;;;33.93;9.13;;;-0.30;1.00;;;;;;5079350;28;20203;-85
2022/01/15 07:54:46;;;;;;;38.80;7.77;;;-0.20;1.00;;;;;;5079379;28;20220;-85
2022/01/15 07:57:13;;;;;;;48.43;9.43;;;-0.10;1.00;;;;;;5078986;28;20200;-84
2022/01/15 07:59:40;;;;;;;67.17;12.10;;;-0.10;1.00;;;;;;5079230;28;20219;-86
2022/01/15 08:02:09;;;;;;;42.93;9.67;;;0.00;1.00;;;;;;5079325;28;20199;-87
2022/01/15 08:04:36;;;;;;;53.30;10.20;;;0.00;1.00;;;;;;5079542;28;20242;-84
2022/01/15 08:07:03;;;;;;;47.00;7.53;;;0.00;1.00;;;;;;5079098;28;20200;-86
2022/01/15 08:09:30;;;;;;;51.27;9.43;;;0.10;1.00;;;;;;5071570;28;20278;-85
2022/01/15 08:11:57;;;;;;;54.93;10.07;;;0.10;1.00;;;;;;5059421;28;20580;-85
2022/01/15 08:14:24;;;;;;;47.80;8.87;;;0.20;1.00;;;;;;5079809;28;20209;-85
2022/01/15 08:16:51;;;;;;;50.87;10.40;;;0.30;1.00;;;;;;5079105;28;20644;-87
2022/01/15 08:19:19;;;;;;;54.87;11.97;;;0.30;1.00;;;;;;5079195;28;20196;-85
2022/01/15 08:21:46;;;;;;;63.37;13.90;;;0.40;1.00;;;;;;5079252;28;20241;-88
2022/01/15 08:24:13;;;;;;;67.70;11.67;;;0.40;1.00;;;;;;5079225;28;20195;-88
2022/01/15 08:26:41;;;;;;;59.87;8.63;;;0.50;1.00;;;;;;5079685;28;20191;-86
2022/01/15 08:29:08;;;;;;;61.17;10.53;;;0.50;59.50;;;;;;5079040;28;20208;-87
2022/01/15 08:31:35;;;;;;;53.30;9.20;;;0.60;92.90;;;;;;5075971;28;20204;-86
2022/01/15 08:34:03;;;;;;;63.47;11.33;;;0.70;99.90;;;;;;5074085;28;20667;-90
2022/01/15 08:36:32;;;;;;;68.43;9.50;;;0.70;99.90;;;;;;5073251;28;20197;-92
2022/01/15 08:38:59;;;;;;;72.57;9.83;;;0.80;99.90;;;;;;5073044;28;20241;-88
2022/01/15 08:41:26;;;;;;;57.37;8.17;;;0.80;99.90;;;;;;5072951;28;20195;-87
2022/01/15 08:43:53;;;;;;;60.50;7.97;;;0.90;99.90;;;;;;5073092;28;20250;-88
2022/01/15 08:46:20;;;;;;;72.53;18.13;;;1.00;91.40;;;;;;5072725;28;20200;-89
2022/01/15 08:48:48;;;;;;;325.77;71.30;;;1.00;82.90;;;;;;5073032;28;20247;-86
2022/01/15 08:51:16;;;;;;;373.10;84.10;;;1.00;96.70;;;;;;5073187;28;20203;-89
2022/01/15 08:53:44;;;;;;;269.50;58.30;;;1.00;95.40;;;;;;5084646;28;20191;-87
2022/01/15 08:56:11;;;;;;;409.97;90.13;;;1.10;62.80;;;;;;5093777;28;20216;-88
2022/01/15 08:58:38;;;;;;;342.40;84.23;;;1.10;35.30;;;;;;5093085;28;20506;-86
2022/01/15 09:01:10;;;;;;;328.53;96.40;;;1.10;35.30;;;;;;5074736;28;20237;-88
2022/01/15 09:03:37;;;;;;;76.73;24.97;;;1.10;41.60;;;;;;5087646;28;20183;-86
2022/01/15 09:06:04;;;;;;;54.70;23.23;;;1.20;43.50;;;;;;5092155;28;20195;-89
2022/01/15 09:08:31;;;;;;;42.97;12.73;;;1.20;49.50;;;;;;5081149;28;20211;-89
2022/01/15 09:11:05;;;;;;;53.43;17.87;;;1.30;67.30;;;;;;5071259;28;20253;-89
2022/01/15 09:13:32;;;;;;;55.27;21.20;;;1.30;62.80;;;;;;5070462;28;20179;-88
2022/01/15 09:15:59;;;;;;;51.43;15.57;;;1.30;64.50;;;;;;5070711;28;20596;-88
2022/01/15 09:18:26;;;;;;;42.23;15.47;;;1.40;75.90;;;;;;5070371;28;20190;-89
2022/01/15 09:20:54;;;;;;;42.73;17.40;;;1.40;49.50;;;;;;5063229;28;20189;-89
2022/01/15 09:23:21;;;;;;;41.13;13.77;;;1.40;11.80;;;;;;5057584;28;20781;-88
2022/01/15 09:25:49;;;;;;;38.27;11.13;;;1.40;1.00;;;;;;5050765;28;20188;-89
2022/01/15 09:31:02;;;;;;;35.17;9.73;;;1.40;1.00;;;;;;5075892;28;20175;-87
2022/01/15 09:33:29;;;;;;;25.47;8.97;;;1.50;1.00;;;;;;5075627;28;20196;-89
2022/01/15 09:35:56;;;;;;;35.40;10.50;;;1.50;1.00;;;;;;5071573;28;20657;-86
2022/01/15 09:38:25;;;;;;;35.43;13.03;;;1.50;10.00;;;;;;5058246;28;20243;-86
2022/01/15 09:40:52;;;;;;;46.37;12.77;;;1.60;8.50;;;;;;5055319;28;20201;-89
2022/01/15 09:43:20;;;;;;;37.77;13.57;;;1.50;15.80;;;;;;5055496;28;20194;-88
2022/01/15 09:45:48;;;;;;;40.07;13.90;;;1.60;33.30;;;;;;5055413;28;20538;-89
2022/01/15 09:48:17;;;;;;;41.17;12.97;;;1.60;6.70;;;;;;5058034;28;20243;-87
2022/01/15 09:50:46;;;;;;;42.07;15.73;;;1.60;1.00;;;;;;5067640;28;20220;-87
2022/01/15 09:53:16;;;;;;;36.53;13.60;;;1.60;1.00;;;;;;5054801;28;20250;-86
2022/01/15 09:55:44;;;;;;;31.97;12.47;;;1.70;1.00;;;;;;5070065;28;20692;-88
2022/01/15 09:58:11;;;;;;;40.70;15.10;;;1.60;1.00;;;;;;5075113;28;20199;-86
2022/01/15 10:00:40;;;;;;;37.73;14.53;;;1.60;1.00;;;;;;5075200;28;20208;-86
2022/01/15 10:03:07;;;;;;;39.27;14.80;;;1.60;1.00;;;;;;5074357;28;20200;-88
2022/01/15 10:05:34;;;;;;;38.37;12.27;;;1.60;1.00;;;;;;5061470;28;20610;-87
2022/01/15 10:08:03;;;;;;;38.20;12.53;;;1.70;1.00;;;;;;5055070;28;20192;-86
2022/01/15 10:10:32;;;;;;;53.20;18.95;;;1.70;1.00;;;;;;5058647;28;20632;-86
2022/01/15 10:13:13;;;;;;;43.07;16.47;;;1.70;1.00;;;;;;5066305;28;20415;-85
2022/01/15 10:15:42;;;;;;;34.90;13.03;;;1.70;1.00;;;;;;5074776;28;20184;-87
2022/01/15 10:18:23;;;;;;;33.80;13.70;;;1.70;1.00;;;;;;5074965;28;20239;-85
2022/01/15 10:20:51;;;;;;;36.13;13.37;;;1.70;1.00;;;;;;5071271;28;20196;-86
2022/01/15 10:23:20;;;;;;;33.15;11.30;;;1.70;1.00;;;;;;5053293;28;20201;-86
2022/01/15 10:26:14;;;;;;;31.53;10.40;;;1.70;1.00;;;;;;5061815;28;20230;-84
2022/01/15 10:29:07;;;;;;;29.37;11.90;;;1.80;1.00;;;;;;5053629;28;20197;-86
2022/01/15 10:31:41;;;;;;;37.70;12.57;;;1.90;1.00;;;;;;5042905;28;20258;-84
2022/01/15 10:34:27;;;;;;;35.80;13.83;;;1.90;1.00;;;;;;5053648;28;20650;-84
2022/01/15 10:37:05;;;;;;;29.93;12.50;;;1.90;1.00;;;;;;5053931;28;20186;-85
2022/01/15 10:39:35;;;;;;;38.03;12.27;;;2.00;1.00;;;;;;5054517;28;20182;-84
2022/01/15 10:42:02;;;;;;;34.90;11.83;;;2.00;1.00;;;;;;5058586;28;20189;-83
2022/01/15 10:44:32;;;;;;;25.57;11.77;;;2.00;1.00;;;;;;5074411;28;20247;-85
2022/01/15 10:47:05;;;;;;;23.70;10.03;;;2.00;1.00;;;;;;5074091;28;20227;-84
2022/01/15 10:49:32;;;;;;;33.07;11.37;;;2.00;1.00;;;;;;5074126;28;20254;-85
2022/01/15 10:52:18;;;;;;;30.40;10.63;;;2.00;1.00;;;;;;5074055;28;20662;-84
2022/01/15 10:54:58;;;;;;;27.83;10.67;;;2.10;1.00;;;;;;5074289;28;20232;-84
2022/01/15 10:57:28;;;;;;;29.77;10.63;;;2.10;1.00;;;;;;5074048;28;20605;-85
2022/01/15 11:00:14;;;;;;;30.00;10.60;;;2.10;1.00;;;;;;5074374;28;20176;-85
2022/01/15 11:02:44;;;;;;;31.20;12.00;;;2.20;1.00;;;;;;5073454;28;20195;-85
2022/01/15 11:05:24;;;;;;;35.23;13.37;;;2.20;1.00;;;;;;5073815;28;20197;-84
2022/01/15 11:07:51;;;;;;;46.80;18.73;;;2.20;1.00;;;;;;5076328;28;20190;-84
2022/01/15 11:10:19;;;;;;;41.00;14.23;;;2.20;1.00;;;;;;5073097;28;20623;-84
2022/01/15 11:12:46;;;;;;;31.10;11.67;;;2.20;1.00;;;;;;5068921;28;20239;-83
2022/01/15 11:15:15;;;;;;;25.27;10.43;;;2.20;1.00;;;;;;5064231;28;20295;-84
2022/01/15 11:17:44;;;;;;;38.83;12.63;;;2.20;1.00;;;;;;5053472;28;20552;-87
2022/01/15 11:20:12;;;;;;;43.37;15.63;;;2.30;1.00;;;;;;5070415;28;20261;-85
2022/01/15 11:22:43;;;;;;;47.70;15.60;;;2.30;1.00;;;;;;5074682;28;20593;-86
2022/01/15 11:25:13;;;;;;;45.43;15.40;;;2.30;1.00;;;;;;5075439;28;20583;-86
2022/01/15 11:27:41;;;;;;;40.00;13.60;;;2.30;1.00;;;;;;5076252;28;20182;-86
2022/01/15 11:30:09;;;;;;;32.60;13.77;;;2.30;1.00;;;;;;5075933;28;20245;-86
2022/01/15 11:32:37;;;;;;;28.97;12.73;;;2.40;1.00;;;;;;5077457;28;20196;-86
2022/01/15 11:35:07;;;;;;;24.70;9.27;;;2.40;1.00;;;;;;5077993;28;20196;-86
2022/01/15 11:37:45;;;;;;;25.30;9.47;;;2.40;1.00;;;;;;5079065;28;20614;-86
2022/01/15 11:40:35;;;;;;;21.23;8.73;;;2.40;1.00;;;;;;5079660;28;20188;-86
2022/01/15 11:43:33;;;;;;;21.17;8.60;;;2.40;1.00;;;;;;5077754;28;20281;-86
2022/01/15 11:46:04;;;;;;;23.33;7.53;;;2.40;1.00;;;;;;5077043;28;20527;-86
2022/01/15 11:48:33;;;;;;;30.33;9.20;;;2.40;1.00;;;;;;5073790;28;20549;-88
2022/01/15 11:51:27;;;;;;;16.70;7.30;;;2.40;1.00;;;;;;5073700;28;20247;-88
2022/01/15 11:53:57;;;;;;;20.73;8.80;;;2.40;1.00;;;;;;5073978;28;20241;-87
2022/01/15 11:56:26;;;;;;;23.53;9.27;;;2.40;1.00;;;;;;5073768;28;20589;-88
2022/01/15 11:58:56;;;;;;;42.07;16.97;;;2.40;1.00;;;;;;5074452;28;20192;-89
2022/01/15 12:01:38;;;;;;;56.00;20.00;;;2.40;1.00;;;;;;5074699;28;20196;-88
2022/01/15 12:04:26;;;;;;;24.67;8.77;;;2.40;1.00;;;;;;5074213;28;20626;-89
2022/01/15 12:07:20;;;;;;;61.03;24.17;;;2.40;1.00;;;;;;5074283;28;20254;-88
2022/01/15 12:09:48;;;;;;;92.80;35.47;;;2.30;1.00;;;;;;5074735;28;20221;-88
2022/01/15 12:12:48;;;;;;;39.90;18.10;;;2.30;1.00;;;;;;5075040;28;20189;-88
2022/01/15 12:15:19;;;;;;;53.23;24.80;;;2.40;1.00;;;;;;5075143;28;20180;-88
2022/01/15 12:17:48;;;;;;;27.07;11.03;;;2.40;1.00;;;;;;5075243;28;20180;-88
2022/01/15 12:20:36;;;;;;;25.50;11.80;;;2.50;1.00;;;;;;5075110;28;20287;-88
2022/01/15 12:23:21;;;;;;;28.67;12.67;;;2.40;1.00;;;;;;5071496;28;20194;-87
2022/01/15 12:25:50;;;;;;;44.47;19.33;;;2.40;1.00;;;;;;5074757;28;20253;-89
2022/01/15 12:28:18;;;;;;;47.47;22.47;;;2.40;1.00;;;;;;5074991;28;20196;-89
2022/01/15 12:30:47;;;;;;;61.17;29.73;;;2.40;1.00;;;;;;5074824;28;20208;-89
2022/01/15 12:33:16;;;;;;;38.33;18.97;;;2.30;1.00;;;;;;5074633;28;20232;-89
2022/01/15 12:35:45;;;;;;;33.23;15.63;;;2.30;1.00;;;;;;5074842;28;20657;-88
2022/01/15 12:38:15;;;;;;;20.97;11.00;;;2.30;1.00;;;;;;5059536;28;20277;-88
2022/01/15 12:40:43;;;;;;;23.83;10.23;;;2.20;1.00;;;;;;5054855;28;20197;-88
2022/01/15 12:43:12;;;;;;;26.20;10.80;;;2.20;1.00;;;;;;5067756;28;20526;-88
2022/01/15 12:45:40;;;;;;;31.83;14.47;;;2.20;1.00;;;;;;5074920;28;20188;-88
2022/01/15 12:48:08;;;;;;;50.00;23.60;;;2.20;1.00;;;;;;5074483;28;20197;-88
2022/01/15 12:50:46;;;;;;;44.00;21.63;;;2.20;1.00;;;;;;5073630;28;20295;-89
2022/01/15 12:53:16;;;;;;;42.33;19.13;;;2.20;1.00;;;;;;5074099;28;20274;-88
2022/01/15 12:55:46;;;;;;;35.03;15.90;;;2.10;1.00;;;;;;5072799;28;20318;-89
2022/01/15 12:58:16;;;;;;;23.37;10.30;;;2.10;1.00;;;;;;5072755;28;20218;-88
2022/01/15 13:00:44;;;;;;;19.67;10.30;;;2.10;1.00;;;;;;5074434;28;20195;-89
2022/01/15 13:03:14;;;;;;;20.97;10.17;;;2.00;1.00;;;;;;5077390;28;20740;-89
2022/01/15 13:05:43;;;;;;;24.17;11.00;;;2.00;1.00;;;;;;5077578;28;20192;-88
2022/01/15 13:08:12;;;;;;;30.50;14.30;;;2.00;1.00;;;;;;5077537;28;20264;-90
2022/01/15 13:10:56;;;;;;;32.23;12.97;;;1.90;1.00;;;;;;5080510;28;20549;-90